sensor_id;sensor_type;location;lat;lon;timestamp;pressure;altitude;pressure_sealevel;temperature;humidity
75697;BME280;64312;44.738;20.612;2023-04-28T00:00:49;100813.50;;;5.10;63.00
75697;BME280;64312;44.738;20.612;2023-04-28T00:03:15;100895.31;;;5.49;62.95
75697;BME280;64312;44.738;20.612;2023-04-28T00:05:41;100691.53;;;4.27;62.90
75697;BME280;64312;44.738;20.612;2023-04-28T00:08:07;100923.22;;;5.64;62.69
75697;BME280;64312;44.738;20.612;2023-04-28T00:10:33;100852.06;;;5.26;63.28
75697;BME280;64312;44.738;20.612;2023-04-28T00:12:59;100669.09;;;4.10;63.08
75697;BME280;64312;44.738;20.612;2023-04-28T00:15:26;100927.72;;;5.63;63.25
75697;BME280;64312;44.738;20.612;2023-04-28T00:17:51;100844.69;;;5.10;62.96
75697;BME280;64312;44.738;20.612;2023-04-28T00:20:17;100894.66;;;5.18;62.89
75697;BME280;64312;44.738;20.612;2023-04-28T00:22:43;100912.06;;;5.41;62.83
75697;BME280;64312;44.738;20.612;2023-04-28T00:25:08;100931.53;;;5.61;63.13
75697;BME280;64312;44.738;20.612;2023-04-28T00:27:34;100895.75;;;5.34;62.69
75697;BME280;64312;44.738;20.612;2023-04-28T00:30:01;100928.63;;;5.54;62.61
75697;BME280;64312;44.738;20.612;2023-04-28T00:32:26;100798.97;;;4.66;63.20
75697;BME280;64312;44.738;20.612;2023-04-28T00:34:52;100910.25;;;5.22;63.12
75697;BME280;64312;44.738;20.612;2023-04-28T00:37:18;100873.91;;;4.92;63.00
75697;BME280;64312;44.738;20.612;2023-04-28T00:39:44;100954.47;;;5.44;62.79
75697;BME280;64312;44.738;20.612;2023-04-28T00:42:13;100858.91;;;4.72;63.20
75697;BME280;64312;44.738;20.612;2023-04-28T00:44:40;100898.06;;;5.10;62.65
75697;BME280;64312;44.738;20.612;2023-04-28T00:47:07;100928.81;;;5.24;63.41
75697;BME280;64312;44.738;20.612;2023-04-28T00:49:35;100782.69;;;4.30;62.76
75697;BME280;64312;44.738;20.612;2023-04-28T00:52:04;100827.44;;;4.17;63.10
75697;BME280;64312;44.738;20.612;2023-04-28T00:54:31;100927.69;;;5.07;63.49
75697;BME280;64312;44.738;20.612;2023-04-28T00:56:57;100942.72;;;5.18;63.56
75697;BME280;64312;44.738;20.612;2023-04-28T00:59:23;100838.09;;;4.37;63.62
75697;BME280;64312;44.738;20.612;2023-04-28T01:01:48;100901.84;;;4.69;63.91
75697;BME280;64312;44.738;20.612;2023-04-28T01:04:17;100954.50;;;5.15;63.51
75697;BME280;64312;44.738;20.612;2023-04-28T01:06:44;100944.81;;;4.95;63.88
75697;BME280;64312;44.738;20.612;2023-04-28T01:09:11;100926.97;;;4.95;63.78
75697;BME280;64312;44.738;20.612;2023-04-28T01:11:36;100856.38;;;4.51;63.51
75697;BME280;64312;44.738;20.612;2023-04-28T01:14:08;100871.94;;;4.55;64.18
75697;BME280;64312;44.738;20.612;2023-04-28T01:16:37;100871.78;;;4.57;63.86
75697;BME280;64312;44.738;20.612;2023-04-28T01:19:06;100873.22;;;4.61;63.33
75697;BME280;64312;44.738;20.612;2023-04-28T01:21:33;100974.16;;;5.14;63.45
75697;BME280;64312;44.738;20.612;2023-04-28T01:24:19;100965.47;;;4.93;63.70
75697;BME280;64312;44.738;20.612;2023-04-28T01:26:45;100975.28;;;5.02;64.12
75697;BME280;64312;44.738;20.612;2023-04-28T01:29:10;100959.72;;;4.97;63.36
75697;BME280;64312;44.738;20.612;2023-04-28T01:31:36;100988.22;;;5.06;64.14
75697;BME280;64312;44.738;20.612;2023-04-28T01:34:02;100746.44;;;3.60;63.97
75697;BME280;64312;44.738;20.612;2023-04-28T01:36:28;100843.84;;;4.13;64.31
75697;BME280;64312;44.738;20.612;2023-04-28T01:38:54;100972.63;;;5.02;64.39
75697;BME280;64312;44.738;20.612;2023-04-28T01:41:20;100884.56;;;4.34;64.34
75697;BME280;64312;44.738;20.612;2023-04-28T01:43:46;100969.25;;;4.90;64.47
75697;BME280;64312;44.738;20.612;2023-04-28T01:46:12;100920.09;;;4.54;64.20
75697;BME280;64312;44.738;20.612;2023-04-28T01:48:37;100845.09;;;4.08;64.75
75697;BME280;64312;44.738;20.612;2023-04-28T01:51:04;100900.72;;;4.52;64.02
75697;BME280;64312;44.738;20.612;2023-04-28T01:53:30;100873.31;;;4.30;64.27
75697;BME280;64312;44.738;20.612;2023-04-28T01:55:56;100871.91;;;4.26;64.52
75697;BME280;64312;44.738;20.612;2023-04-28T01:58:23;100911.94;;;4.55;63.75
75697;BME280;64312;44.738;20.612;2023-04-28T02:00:49;100945.91;;;4.63;64.52
75697;BME280;64312;44.738;20.612;2023-04-28T02:03:16;100916.25;;;4.37;63.88
75697;BME280;64312;44.738;20.612;2023-04-28T02:05:42;100936.34;;;4.41;64.39
75697;BME280;64312;44.738;20.612;2023-04-28T02:08:07;100951.78;;;4.47;63.77
75697;BME280;64312;44.738;20.612;2023-04-28T02:10:33;100659.13;;;2.85;64.01
75697;BME280;64312;44.738;20.612;2023-04-28T02:12:58;100977.09;;;4.72;64.19
75697;BME280;64312;44.738;20.612;2023-04-28T02:15:24;100926.50;;;4.42;64.51
75697;BME280;64312;44.738;20.612;2023-04-28T02:17:52;100986.94;;;4.72;64.75
75697;BME280;64312;44.738;20.612;2023-04-28T02:20:17;100999.41;;;4.81;64.49
75697;BME280;64312;44.738;20.612;2023-04-28T02:22:43;100950.66;;;4.50;64.49
75697;BME280;64312;44.738;20.612;2023-04-28T02:25:09;100878.19;;;4.16;64.13
75697;BME280;64312;44.738;20.612;2023-04-28T02:27:36;100873.34;;;3.80;64.21
75697;BME280;64312;44.738;20.612;2023-04-28T02:30:04;100985.50;;;4.68;63.90
75697;BME280;64312;44.738;20.612;2023-04-28T02:32:29;100925.97;;;4.38;64.12
75697;BME280;64312;44.738;20.612;2023-04-28T02:34:56;100991.72;;;4.78;63.86
75697;BME280;64312;44.738;20.612;2023-04-28T02:37:22;100793.78;;;3.57;64.63
75697;BME280;64312;44.738;20.612;2023-04-28T02:39:49;100811.06;;;3.72;64.02
75697;BME280;64312;44.738;20.612;2023-04-28T02:42:15;100915.41;;;4.27;63.74
75697;BME280;64312;44.738;20.612;2023-04-28T02:44:41;100737.38;;;3.22;64.90
75697;BME280;64312;44.738;20.612;2023-04-28T02:47:06;100709.19;;;3.10;64.77
75697;BME280;64312;44.738;20.612;2023-04-28T02:49:32;100996.59;;;4.73;65.28
75697;BME280;64312;44.738;20.612;2023-04-28T02:51:58;100968.81;;;4.75;64.93
75697;BME280;64312;44.738;20.612;2023-04-28T02:54:24;100999.03;;;4.85;64.53
75697;BME280;64312;44.738;20.612;2023-04-28T02:56:54;100959.69;;;4.68;64.54
75697;BME280;64312;44.738;20.612;2023-04-28T02:59:20;100918.88;;;4.18;64.75
75697;BME280;64312;44.738;20.612;2023-04-28T03:01:46;100985.25;;;4.71;64.52
75697;BME280;64312;44.738;20.612;2023-04-28T03:04:13;100942.34;;;4.43;63.81
75697;BME280;64312;44.738;20.612;2023-04-28T03:06:39;100882.25;;;4.10;64.28
75697;BME280;64312;44.738;20.612;2023-04-28T03:09:04;100998.84;;;4.68;64.04
75697;BME280;64312;44.738;20.612;2023-04-28T03:11:31;100891.94;;;4.11;63.50
75697;BME280;64312;44.738;20.612;2023-04-28T03:13:57;100909.34;;;4.15;64.34
75697;BME280;64312;44.738;20.612;2023-04-28T03:16:23;100882.09;;;4.02;63.95
75697;BME280;64312;44.738;20.612;2023-04-28T03:18:49;100919.00;;;4.16;63.63
75697;BME280;64312;44.738;20.612;2023-04-28T03:21:14;100780.94;;;3.31;64.22
75697;BME280;64312;44.738;20.612;2023-04-28T03:23:40;100958.50;;;4.32;63.96
75697;BME280;64312;44.738;20.612;2023-04-28T03:26:06;100909.72;;;4.01;64.44
75697;BME280;64312;44.738;20.612;2023-04-28T03:28:32;100995.44;;;4.56;64.44
75697;BME280;64312;44.738;20.612;2023-04-28T03:30:58;100886.69;;;3.90;64.72
75697;BME280;64312;44.738;20.612;2023-04-28T03:33:25;100973.94;;;4.48;64.44
75697;BME280;64312;44.738;20.612;2023-04-28T03:35:52;100906.22;;;4.00;64.25
75697;BME280;64312;44.738;20.612;2023-04-28T03:38:19;101018.09;;;4.71;64.31
75697;BME280;64312;44.738;20.612;2023-04-28T03:40:45;100888.34;;;3.91;64.97
75697;BME280;64312;44.738;20.612;2023-04-28T03:43:20;100634.03;;;2.47;64.67
75697;BME280;64312;44.738;20.612;2023-04-28T03:46:12;101021.91;;;4.78;64.60
75697;BME280;64312;44.738;20.612;2023-04-28T03:48:38;101017.25;;;4.80;64.73
75697;BME280;64312;44.738;20.612;2023-04-28T03:51:04;100908.75;;;4.02;64.04
75697;BME280;64312;44.738;20.612;2023-04-28T03:53:30;100908.16;;;3.98;63.61
75697;BME280;64312;44.738;20.612;2023-04-28T03:55:55;100928.97;;;4.14;63.90
75697;BME280;64312;44.738;20.612;2023-04-28T03:58:21;100608.09;;;2.09;64.01
75697;BME280;64312;44.738;20.612;2023-04-28T04:00:47;100989.69;;;4.51;64.09
75697;BME280;64312;44.738;20.612;2023-04-28T04:03:13;100948.47;;;4.24;63.86
75697;BME280;64312;44.738;20.612;2023-04-28T04:05:39;100992.75;;;4.46;63.84
75697;BME280;64312;44.738;20.612;2023-04-28T04:08:05;101035.34;;;4.67;64.35
75697;BME280;64312;44.738;20.612;2023-04-28T04:10:31;100898.25;;;3.79;63.44
75697;BME280;64312;44.738;20.612;2023-04-28T04:12:57;101036.47;;;4.74;64.41
75697;BME280;64312;44.738;20.612;2023-04-28T04:15:23;100943.38;;;4.12;63.63
75697;BME280;64312;44.738;20.612;2023-04-28T04:17:49;101061.22;;;4.86;64.62
75697;BME280;64312;44.738;20.612;2023-04-28T04:20:14;100933.84;;;4.09;63.97
75697;BME280;64312;44.738;20.612;2023-04-28T04:22:40;100947.69;;;4.33;63.67
75697;BME280;64312;44.738;20.612;2023-04-28T04:25:07;100979.13;;;4.49;64.31
75697;BME280;64312;44.738;20.612;2023-04-28T04:27:33;100969.84;;;4.34;64.04
75697;BME280;64312;44.738;20.612;2023-04-28T04:29:59;100801.16;;;3.43;64.52
75697;BME280;64312;44.738;20.612;2023-04-28T04:32:25;100882.66;;;4.05;64.40
75697;BME280;64312;44.738;20.612;2023-04-28T04:34:52;100885.50;;;4.14;64.09
75697;BME280;64312;44.738;20.612;2023-04-28T04:37:17;101055.81;;;5.16;63.98
75697;BME280;64312;44.738;20.612;2023-04-28T04:39:59;101016.44;;;4.89;63.90
75697;BME280;64312;44.738;20.612;2023-04-28T04:42:26;100880.72;;;4.17;63.31
75697;BME280;64312;44.738;20.612;2023-04-28T04:45:07;101028.28;;;5.16;63.71
75697;BME280;64312;44.738;20.612;2023-04-28T04:47:33;101026.56;;;5.15;63.46
75697;BME280;64312;44.738;20.612;2023-04-28T04:49:59;100860.81;;;4.21;63.38
75697;BME280;64312;44.738;20.612;2023-04-28T04:52:25;100846.81;;;4.19;63.75
75697;BME280;64312;44.738;20.612;2023-04-28T04:54:50;100979.38;;;4.96;64.34
75697;BME280;64312;44.738;20.612;2023-04-28T04:57:16;101027.97;;;5.38;64.13
75697;BME280;64312;44.738;20.612;2023-04-28T05:00:05;100987.94;;;5.19;63.37
75697;BME280;64312;44.738;20.612;2023-04-28T05:02:31;100958.88;;;5.16;63.69
75697;BME280;64312;44.738;20.612;2023-04-28T05:04:58;100993.41;;;5.27;63.70
75697;BME280;64312;44.738;20.612;2023-04-28T05:07:25;101062.25;;;5.82;63.37
75697;BME280;64312;44.738;20.612;2023-04-28T05:09:51;100711.00;;;3.69;63.14
75697;BME280;64312;44.738;20.612;2023-04-28T05:12:17;101019.38;;;5.64;63.16
75697;BME280;64312;44.738;20.612;2023-04-28T05:14:42;100788.75;;;4.13;62.93
75697;BME280;64312;44.738;20.612;2023-04-28T05:17:08;100953.38;;;5.37;62.67
75697;BME280;64312;44.738;20.612;2023-04-28T05:19:36;101013.31;;;5.81;62.93
75697;BME280;64312;44.738;20.612;2023-04-28T05:22:02;101072.19;;;6.18;62.82
75697;BME280;64312;44.738;20.612;2023-04-28T05:24:28;101080.50;;;6.25;62.95
75697;BME280;64312;44.738;20.612;2023-04-28T05:26:57;101057.63;;;6.31;61.84
75697;BME280;64312;44.738;20.612;2023-04-28T05:29:22;101005.97;;;6.03;61.90
75697;BME280;64312;44.738;20.612;2023-04-28T05:31:48;101013.31;;;6.01;62.04
75697;BME280;64312;44.738;20.612;2023-04-28T05:34:14;101055.59;;;6.52;61.22
75697;BME280;64312;44.738;20.612;2023-04-28T05:36:40;100878.56;;;5.47;61.03
75697;BME280;64312;44.738;20.612;2023-04-28T05:39:09;101037.81;;;6.61;60.83
75697;BME280;64312;44.738;20.612;2023-04-28T05:41:36;100992.78;;;6.29;60.59
75697;BME280;64312;44.738;20.612;2023-04-28T05:44:02;100959.66;;;6.39;59.89
75697;BME280;64312;44.738;20.612;2023-04-28T05:46:28;101038.88;;;6.95;59.81
75697;BME280;64312;44.738;20.612;2023-04-28T05:48:54;100917.88;;;6.38;59.60
75697;BME280;64312;44.738;20.612;2023-04-28T05:51:20;101070.06;;;7.32;59.26
75697;BME280;64312;44.738;20.612;2023-04-28T05:53:46;100837.47;;;6.22;59.53
75697;BME280;64312;44.738;20.612;2023-04-28T05:56:14;101044.56;;;7.64;59.34
75697;BME280;64312;44.738;20.612;2023-04-28T05:58:41;100981.38;;;7.35;58.93
75697;BME280;64312;44.738;20.612;2023-04-28T06:01:09;101025.59;;;7.83;58.98
75697;BME280;64312;44.738;20.612;2023-04-28T06:03:37;101029.09;;;8.01;58.68
75697;BME280;64312;44.738;20.612;2023-04-28T06:06:06;101047.19;;;8.25;58.08
75697;BME280;64312;44.738;20.612;2023-04-28T06:08:31;100966.81;;;7.81;57.67
75697;BME280;64312;44.738;20.612;2023-04-28T06:10:57;100973.44;;;8.03;57.32
75697;BME280;64312;44.738;20.612;2023-04-28T06:13:23;101020.16;;;8.45;56.89
75697;BME280;64312;44.738;20.612;2023-04-28T06:15:48;100953.97;;;8.27;57.13
75697;BME280;64312;44.738;20.612;2023-04-28T06:18:14;101000.59;;;8.68;56.03
75697;BME280;64312;44.738;20.612;2023-04-28T06:20:41;100868.22;;;8.01;55.75
75697;BME280;64312;44.738;20.612;2023-04-28T06:23:07;100835.50;;;7.90;56.74
75697;BME280;64312;44.738;20.612;2023-04-28T06:25:39;101039.38;;;9.41;59.04
75697;BME280;64312;44.738;20.612;2023-04-28T06:28:06;101008.63;;;9.60;55.48
75697;BME280;64312;44.738;20.612;2023-04-28T06:30:33;100768.75;;;8.37;55.69
75697;BME280;64312;44.738;20.612;2023-04-28T06:33:02;100999.00;;;10.06;56.81
75697;BME280;64312;44.738;20.612;2023-04-28T06:35:27;101057.41;;;10.53;53.58
75697;BME280;64312;44.738;20.612;2023-04-28T06:37:53;101057.56;;;10.60;51.82
75697;BME280;64312;44.738;20.612;2023-04-28T06:40:19;101053.34;;;10.65;50.51
75697;BME280;64312;44.738;20.612;2023-04-28T06:42:50;101017.53;;;10.48;50.05
75697;BME280;64312;44.738;20.612;2023-04-28T06:45:24;101045.88;;;10.75;47.18
75697;BME280;64312;44.738;20.612;2023-04-28T06:47:51;100942.13;;;10.25;46.38
75697;BME280;64312;44.738;20.612;2023-04-28T06:50:20;101070.50;;;11.03;46.17
75697;BME280;64312;44.738;20.612;2023-04-28T06:52:46;101025.75;;;10.94;46.44
75697;BME280;64312;44.738;20.612;2023-04-28T06:55:14;101052.22;;;11.22;45.25
75697;BME280;64312;44.738;20.612;2023-04-28T06:57:40;101049.56;;;11.36;45.49
75697;BME280;64312;44.738;20.612;2023-04-28T07:00:06;100927.75;;;10.72;44.37
75697;BME280;64312;44.738;20.612;2023-04-28T07:02:32;101037.34;;;11.49;43.44
75697;BME280;64312;44.738;20.612;2023-04-28T07:04:58;100948.88;;;11.06;42.40
75697;BME280;64312;44.738;20.612;2023-04-28T07:07:23;101045.06;;;11.75;41.29
75697;BME280;64312;44.738;20.612;2023-04-28T07:09:49;100819.03;;;10.50;39.44
75697;BME280;64312;44.738;20.612;2023-04-28T07:12:16;101055.94;;;12.04;39.79
75697;BME280;64312;44.738;20.612;2023-04-28T07:14:42;101056.41;;;12.08;37.68
75697;BME280;64312;44.738;20.612;2023-04-28T07:17:07;101047.38;;;12.01;36.61
75697;BME280;64312;44.738;20.612;2023-04-28T07:19:33;101038.75;;;12.20;36.27
75697;BME280;64312;44.738;20.612;2023-04-28T07:21:59;101047.59;;;12.29;35.43
75697;BME280;64312;44.738;20.612;2023-04-28T07:24:24;101043.13;;;12.36;35.19
75697;BME280;64312;44.738;20.612;2023-04-28T07:26:51;101042.22;;;12.43;33.68
75697;BME280;64312;44.738;20.612;2023-04-28T07:29:17;101044.34;;;12.48;32.09
75697;BME280;64312;44.738;20.612;2023-04-28T07:31:42;101050.22;;;12.52;32.00
75697;BME280;64312;44.738;20.612;2023-04-28T07:34:08;100914.56;;;11.76;31.28
75697;BME280;64312;44.738;20.612;2023-04-28T07:36:34;101039.13;;;12.46;31.51
75697;BME280;64312;44.738;20.612;2023-04-28T07:39:00;101043.78;;;12.67;32.36
75697;BME280;64312;44.738;20.612;2023-04-28T07:41:26;101013.34;;;12.59;32.56
75697;BME280;64312;44.738;20.612;2023-04-28T07:43:52;100926.88;;;12.08;32.44
75697;BME280;64312;44.738;20.612;2023-04-28T07:46:18;101045.16;;;12.78;32.07
75697;BME280;64312;44.738;20.612;2023-04-28T07:48:43;101039.38;;;12.81;31.94
75697;BME280;64312;44.738;20.612;2023-04-28T07:51:09;101042.06;;;12.96;31.49
75697;BME280;64312;44.738;20.612;2023-04-28T07:53:35;101027.38;;;12.84;32.57
75697;BME280;64312;44.738;20.612;2023-04-28T07:56:00;101042.97;;;13.03;32.33
75697;BME280;64312;44.738;20.612;2023-04-28T07:58:26;101052.47;;;13.14;30.62
75697;BME280;64312;44.738;20.612;2023-04-28T08:00:52;100990.75;;;12.81;30.54
75697;BME280;64312;44.738;20.612;2023-04-28T08:03:17;101000.41;;;12.90;29.87
75697;BME280;64312;44.738;20.612;2023-04-28T08:05:43;101003.63;;;13.00;31.25
75697;BME280;64312;44.738;20.612;2023-04-28T08:08:09;100931.81;;;12.70;30.96
75697;BME280;64312;44.738;20.612;2023-04-28T08:10:35;101026.94;;;13.38;30.24
75697;BME280;64312;44.738;20.612;2023-04-28T08:13:02;100977.41;;;13.16;30.18
75697;BME280;64312;44.738;20.612;2023-04-28T08:15:28;100914.72;;;12.84;31.40
75697;BME280;64312;44.738;20.612;2023-04-28T08:17:53;101018.19;;;13.57;32.14
75697;BME280;64312;44.738;20.612;2023-04-28T08:20:19;100890.00;;;12.87;31.72
75697;BME280;64312;44.738;20.612;2023-04-28T08:22:45;101025.19;;;13.73;31.83
75697;BME280;64312;44.738;20.612;2023-04-28T08:25:11;101022.50;;;13.73;31.71
75697;BME280;64312;44.738;20.612;2023-04-28T08:27:37;101032.53;;;13.79;33.32
75697;BME280;64312;44.738;20.612;2023-04-28T08:30:08;101008.44;;;13.63;31.48
75697;BME280;64312;44.738;20.612;2023-04-28T08:32:34;101033.22;;;13.88;31.32
75697;BME280;64312;44.738;20.612;2023-04-28T08:35:00;100976.00;;;13.63;32.45
75697;BME280;64312;44.738;20.612;2023-04-28T08:37:26;101040.66;;;14.07;32.07
75697;BME280;64312;44.738;20.612;2023-04-28T08:39:52;100882.25;;;13.20;31.61
75697;BME280;64312;44.738;20.612;2023-04-28T08:42:32;100912.84;;;13.49;31.59
75697;BME280;64312;44.738;20.612;2023-04-28T08:44:59;101034.50;;;14.20;31.95
75697;BME280;64312;44.738;20.612;2023-04-28T08:47:33;101022.28;;;14.30;33.06
75697;BME280;64312;44.738;20.612;2023-04-28T08:50:04;101002.63;;;14.22;31.99
75697;BME280;64312;44.738;20.612;2023-04-28T08:52:31;101001.47;;;14.31;33.76
75697;BME280;64312;44.738;20.612;2023-04-28T08:54:59;101002.50;;;14.30;32.75
75697;BME280;64312;44.738;20.612;2023-04-28T08:57:26;101016.28;;;14.42;33.32
75697;BME280;64312;44.738;20.612;2023-04-28T08:59:55;101026.03;;;14.64;31.67
75697;BME280;64312;44.738;20.612;2023-04-28T09:02:21;100894.75;;;13.84;31.43
75697;BME280;64312;44.738;20.612;2023-04-28T09:04:46;100947.47;;;14.29;31.79
75697;BME280;64312;44.738;20.612;2023-04-28T09:07:13;100893.38;;;14.01;31.08
75697;BME280;64312;44.738;20.612;2023-04-28T09:09:39;100939.75;;;14.26;29.89
75697;BME280;64312;44.738;20.612;2023-04-28T09:12:06;100902.41;;;14.15;29.70
75697;BME280;64312;44.738;20.612;2023-04-28T09:14:34;101015.66;;;14.81;29.54
75697;BME280;64312;44.738;20.612;2023-04-28T09:17:01;101007.38;;;14.89;30.47
75697;BME280;64312;44.738;20.612;2023-04-28T09:19:34;100908.53;;;14.30;29.55
75697;BME280;64312;44.738;20.612;2023-04-28T09:22:01;100996.13;;;14.92;29.66
75697;BME280;64312;44.738;20.612;2023-04-28T09:24:32;100966.28;;;14.92;30.24
75697;BME280;64312;44.738;20.612;2023-04-28T09:26:59;100982.19;;;15.02;30.85
75697;BME280;64312;44.738;20.612;2023-04-28T09:29:25;100944.41;;;14.94;30.35
75697;BME280;64312;44.738;20.612;2023-04-28T09:31:53;100931.91;;;14.99;30.03
75697;BME280;64312;44.738;20.612;2023-04-28T09:34:20;100968.81;;;15.07;29.93
75697;BME280;64312;44.738;20.612;2023-04-28T09:36:46;100889.75;;;14.83;29.96
75697;BME280;64312;44.738;20.612;2023-04-28T09:39:12;100967.63;;;15.42;30.29
75697;BME280;64312;44.738;20.612;2023-04-28T09:41:41;100924.81;;;15.05;28.82
75697;BME280;64312;44.738;20.612;2023-04-28T09:44:18;100853.25;;;14.73;28.97
75697;BME280;64312;44.738;20.612;2023-04-28T09:46:46;100957.41;;;15.44;29.61
75697;BME280;64312;44.738;20.612;2023-04-28T09:49:12;100940.28;;;15.31;28.70
75697;BME280;64312;44.738;20.612;2023-04-28T09:51:38;100926.94;;;15.29;28.78
75697;BME280;64312;44.738;20.612;2023-04-28T09:54:04;100958.88;;;15.40;29.02
75697;BME280;64312;44.738;20.612;2023-04-28T09:56:31;100953.25;;;15.49;29.54
75697;BME280;64312;44.738;20.612;2023-04-28T09:58:58;100921.94;;;15.39;29.52
75697;BME280;64312;44.738;20.612;2023-04-28T10:01:31;100817.78;;;14.68;28.39
75697;BME280;64312;44.738;20.612;2023-04-28T10:03:58;100760.59;;;14.36;28.18
75697;BME280;64312;44.738;20.612;2023-04-28T10:06:24;100944.03;;;15.56;28.91
75697;BME280;64312;44.738;20.612;2023-04-28T10:08:50;100958.47;;;15.63;28.92
75697;BME280;64312;44.738;20.612;2023-04-28T10:11:16;100850.56;;;15.12;28.17
75697;BME280;64312;44.738;20.612;2023-04-28T10:13:43;100913.38;;;15.49;27.77
75697;BME280;64312;44.738;20.612;2023-04-28T10:16:13;100905.84;;;15.58;29.49
75697;BME280;64312;44.738;20.612;2023-04-28T10:18:38;100803.41;;;15.07;29.65
75697;BME280;64312;44.738;20.612;2023-04-28T10:21:05;100935.44;;;16.06;31.43
75697;BME280;64312;44.738;20.612;2023-04-28T10:24:02;100923.50;;;16.20;29.84
75697;BME280;64312;44.738;20.612;2023-04-28T10:35:46;100895.59;;;16.44;28.17
75697;BME280;64312;44.738;20.612;2023-04-28T10:47:15;100810.31;;;16.01;27.28
75697;BME280;64312;44.738;20.612;2023-04-28T10:55:32;100899.19;;;16.83;27.75
75697;BME280;64312;44.738;20.612;2023-04-28T11:01:28;100864.84;;;16.50;25.61
75697;BME280;64312;44.738;20.612;2023-04-28T11:07:16;100894.97;;;16.87;27.00
75697;BME280;64312;44.738;20.612;2023-04-28T11:12:31;100867.19;;;17.10;27.70
75697;BME280;64312;44.738;20.612;2023-04-28T11:17:42;100878.06;;;17.35;26.47
75697;BME280;64312;44.738;20.612;2023-04-28T11:20:11;100860.44;;;17.38;26.56
75697;BME280;64312;44.738;20.612;2023-04-28T11:22:37;100758.63;;;16.84;26.59
75697;BME280;64312;44.738;20.612;2023-04-28T11:25:04;100852.72;;;17.59;26.88
75697;BME280;64312;44.738;20.612;2023-04-28T11:27:31;100866.16;;;17.98;26.65
75697;BME280;64312;44.738;20.612;2023-04-28T11:29:57;100857.00;;;17.92;25.63
75697;BME280;64312;44.738;20.612;2023-04-28T11:32:27;100865.78;;;18.12;25.47
75697;BME280;64312;44.738;20.612;2023-04-28T11:34:53;100870.59;;;18.29;25.56
75697;BME280;64312;44.738;20.612;2023-04-28T11:37:19;100870.59;;;18.29;24.78
75697;BME280;64312;44.738;20.612;2023-04-28T11:39:46;100865.16;;;18.59;24.47
75697;BME280;64312;44.738;20.612;2023-04-28T11:45:12;100839.53;;;18.78;23.84
75697;BME280;64312;44.738;20.612;2023-04-28T11:47:38;100849.66;;;19.01;24.99
75697;BME280;64312;44.738;20.612;2023-04-28T11:50:04;100824.88;;;19.03;26.56
75697;BME280;64312;44.738;20.612;2023-04-28T11:52:30;100813.97;;;19.14;23.38
75697;BME280;64312;44.738;20.612;2023-04-28T11:54:56;100847.34;;;19.40;22.87
75697;BME280;64312;44.738;20.612;2023-04-28T11:57:24;100798.53;;;19.08;23.63
75697;BME280;64312;44.738;20.612;2023-04-28T11:59:50;100800.22;;;19.21;22.76
75697;BME280;64312;44.738;20.612;2023-04-28T12:02:24;100824.41;;;19.29;22.90
75697;BME280;64312;44.738;20.612;2023-04-28T12:04:50;100820.00;;;19.16;23.82
75697;BME280;64312;44.738;20.612;2023-04-28T12:07:17;100815.41;;;19.29;23.87
75697;BME280;64312;44.738;20.612;2023-04-28T12:12:54;100800.66;;;19.30;22.02
75697;BME280;64312;44.738;20.612;2023-04-28T12:15:20;100805.31;;;19.53;23.81
75697;BME280;64312;44.738;20.612;2023-04-28T12:17:46;100740.03;;;19.28;23.49
75697;BME280;64312;44.738;20.612;2023-04-28T12:23:38;100815.31;;;19.59;22.48
75697;BME280;64312;44.738;20.612;2023-04-28T12:33:38;100797.44;;;20.20;22.09
75697;BME280;64312;44.738;20.612;2023-04-28T12:39:20;100785.63;;;20.31;22.73
75697;BME280;64312;44.738;20.612;2023-04-28T12:44:22;100763.34;;;20.68;23.43
75697;BME280;64312;44.738;20.612;2023-04-28T12:46:50;100745.94;;;20.74;23.31
75697;BME280;64312;44.738;20.612;2023-04-28T12:49:16;100751.16;;;20.75;22.60
75697;BME280;64312;44.738;20.612;2023-04-28T12:51:42;100667.38;;;20.24;22.10
75697;BME280;64312;44.738;20.612;2023-04-28T12:54:07;100734.91;;;20.69;22.15
75697;BME280;64312;44.738;20.612;2023-04-28T12:56:33;100737.03;;;20.67;21.73
75697;BME280;64312;44.738;20.612;2023-04-28T12:58:59;100642.00;;;20.28;21.70
